Laguepe — 9HAI9 — position and weather

sailwx.info

Track history (hours):
 
Tides and Currents Weather Stations Pressure Air Temp Water Temp Dewpoint Dewpoint Depression Visibility Wind Speed Wind Dir Waves Ship Positions

Laguepe

Last reported at 2014-Dec-19 15:24 UTC. Time now 2014-Dec-20 23:40 UTC.
Position N 43°32' E 004°43'.

Length 81 m; draft 3.2 m.

Type: Cargo ship. MMSI: 256681000.

Date/timePositionNaut miles runAvg speedWind from/ knotsBaromVisibWave heightAir tempDewpointWater temp
2014-Dec-19 15:24N 43°32' E 004°43'10 4.8
2014-Dec-19 13:18N 43°23' E 004°49'2 3.3
2014-Dec-19 12:33N 43°23' E 004°52'6 6.4
2014-Dec-19 11:34N 43°20' E 004°59'6 6.0
2014-Dec-19 10:34N 43°16' E 005°06'6 6.3
2014-Dec-19 09:33N 43°13' E 005°13'247 5.6
2014-Dec-17 13:16N 39°48' E 008°18'13 0.3
2014-Dec-15 12:12N 39°52' E 008°34'  
2014-Dec-13 03:05N 42°54' E 005°56'4 6.8
2014-Dec-13 02:33N 42°57' E 005°53'7 7.0
2014-Dec-13 01:32N 43°02' E 005°46'9 7.7
2014-Dec-13 00:25N 43°05' E 005°35'14 7.3
2014-Dec-12 22:28N 43°11' E 005°17'7 7.2
2014-Dec-12 21:28N 43°15' E 005°09'7 7.4
2014-Dec-12 20:34N 43°19' E 005°01'7 6.8
2014-Dec-12 19:33N 43°24' E 004°55'3 2.5
2014-Dec-12 18:24N 43°24' E 004°51'0 0.0
2014-Dec-12 17:33N 43°24' E 004°51'0 0.0
2014-Dec-12 16:30N 43°24' E 004°51'0 0.0
2014-Dec-12 15:24N 43°24' E 004°51'0 0.0
2014-Dec-12 14:30N 43°24' E 004°51'0 0.0
2014-Dec-12 13:30N 43°24' E 004°51'0 0.0
2014-Dec-12 12:30N 43°24' E 004°51'0 0.0
2014-Dec-12 11:33N 43°24' E 004°51'0 0.0
2014-Dec-12 10:30N 43°24' E 004°51'0 0.0
2014-Dec-12 09:33N 43°24' E 004°51'0 0.0
2014-Dec-12 08:30N 43°24' E 004°51'0 0.0
2014-Dec-12 07:33N 43°24' E 004°51'0 0.0
2014-Dec-12 06:33N 43°24' E 004°51'0 0.0
2014-Dec-12 05:33N 43°24' E 004°51'0 0.0
2014-Dec-12 04:33N 43°24' E 004°51'0 0.0
2014-Dec-12 03:33N 43°24' E 004°51'0 0.0
2014-Dec-12 02:33N 43°24' E 004°51'0 0.0
2014-Dec-12 01:30N 43°24' E 004°51'0 0.0
2014-Dec-12 00:30N 43°24' E 004°51'0 0.0
2014-Dec-11 23:30N 43°24' E 004°51'0 0.0
2014-Dec-11 22:33N 43°24' E 004°51'0 0.0
2014-Dec-11 21:30N 43°24' E 004°51'0 0.0
2014-Dec-11 20:33N 43°24' E 004°51'0 0.0
2014-Dec-11 19:30N 43°24' E 004°51'0 0.0
2014-Dec-11 18:33N 43°24' E 004°51'0 0.0
2014-Dec-11 17:33N 43°24' E 004°51'0 0.0
2014-Dec-11 16:33N 43°24' E 004°51'0 0.0
2014-Dec-11 15:33N 43°24' E 004°51'0 0.0
2014-Dec-11 14:34N 43°24' E 004°51'6 5.9
2014-Dec-11 13:34N 43°21' E 004°58'6 5.7
2014-Dec-11 12:33N 43°18' E 004°52'9 8.6
2014-Dec-11 11:33N 43°17' E 004°40'8 8.4
2014-Dec-11 10:34N 43°19' E 004°29'7 7.3
2014-Dec-11 09:34N 43°22' E 004°19'7 7.5
2014-Dec-11 08:33N 43°24' E 004°10'7 7.5
2014-Dec-11 07:34N 43°26' E 003°60'9 8.9
2014-Dec-11 06:31N 43°21' E 003°49'8 8.6
2014-Dec-11 05:33N 43°16' E 003°39'8 8.4
2014-Dec-11 04:33N 43°12' E 003°30'8 8.3
2014-Dec-11 03:33N 43°07' E 003°20'8 8.3
2014-Dec-11 02:33N 43°03' E 003°11'8 7.8
2014-Dec-11 01:33N 42°55' E 003°10'8 8.0
2014-Dec-11 00:33N 42°47' E 003°10'8 8.0
2014-Dec-10 23:33N 42°39' E 003°10'7 7.4
2014-Dec-10 22:33N 42°32' E 003°13'22 7.2
2014-Dec-10 19:31N 42°11' E 003°21'10 8.6
2014-Dec-10 18:19N 42°01' E 003°20'7 8.6
2014-Dec-10 17:28N 41°54' E 003°18'6 6.9
2014-Dec-10 16:33N 41°48' E 003°15'8 7.6
2014-Dec-10 15:33N 41°44' E 003°06'10 8.1
2014-Dec-10 14:15N 41°38' E 002°54'6 7.6
2014-Dec-10 13:32N 41°35' E 002°48'9 8.6
2014-Dec-10 12:26N 41°30' E 002°37'8 8.8
2014-Dec-10 11:32N 41°25' E 002°29'14 6.9
2014-Dec-10 09:27N 41°18' E 002°13'  
Track history (hours):
 
Tides and Currents Weather Stations Pressure Air Temp Water Temp Dewpoint Dewpoint Depression Visibility Wind Speed Wind Dir Waves Ship Positions

Laguepe

Last reported at 2014-Dec-19 15:24 UTC. Time now 2014-Dec-20 23:40 UTC.
Position N 43°32' E 004°43'.

Length 81 m; draft 3.2 m.

Type: Cargo ship. MMSI: 256681000.

Date/timePositionNaut miles runAvg speedWind from/ knotsBaromVisibWave heightAir tempDewpointWater temp
2014-Dec-19 15:24N 43°32' E 004°43'10 4.8
2014-Dec-19 13:18N 43°23' E 004°49'2 3.3
2014-Dec-19 12:33N 43°23' E 004°52'6 6.4
2014-Dec-19 11:34N 43°20' E 004°59'6 6.0
2014-Dec-19 10:34N 43°16' E 005°06'6 6.3
2014-Dec-19 09:33N 43°13' E 005°13'247 5.6
2014-Dec-17 13:16N 39°48' E 008°18'13 0.3
2014-Dec-15 12:12N 39°52' E 008°34'  
2014-Dec-13 03:05N 42°54' E 005°56'4 6.8
2014-Dec-13 02:33N 42°57' E 005°53'7 7.0
2014-Dec-13 01:32N 43°02' E 005°46'9 7.7
2014-Dec-13 00:25N 43°05' E 005°35'14 7.3
2014-Dec-12 22:28N 43°11' E 005°17'7 7.2
2014-Dec-12 21:28N 43°15' E 005°09'7 7.4
2014-Dec-12 20:34N 43°19' E 005°01'7 6.8
2014-Dec-12 19:33N 43°24' E 004°55'3 2.5
2014-Dec-12 18:24N 43°24' E 004°51'0 0.0
2014-Dec-12 17:33N 43°24' E 004°51'0 0.0
2014-Dec-12 16:30N 43°24' E 004°51'0 0.0
2014-Dec-12 15:24N 43°24' E 004°51'0 0.0
2014-Dec-12 14:30N 43°24' E 004°51'0 0.0
2014-Dec-12 13:30N 43°24' E 004°51'0 0.0
2014-Dec-12 12:30N 43°24' E 004°51'0 0.0
2014-Dec-12 11:33N 43°24' E 004°51'0 0.0
2014-Dec-12 10:30N 43°24' E 004°51'0 0.0
2014-Dec-12 09:33N 43°24' E 004°51'0 0.0
2014-Dec-12 08:30N 43°24' E 004°51'0 0.0
2014-Dec-12 07:33N 43°24' E 004°51'0 0.0
2014-Dec-12 06:33N 43°24' E 004°51'0 0.0
2014-Dec-12 05:33N 43°24' E 004°51'0 0.0
2014-Dec-12 04:33N 43°24' E 004°51'0 0.0
2014-Dec-12 03:33N 43°24' E 004°51'0 0.0
2014-Dec-12 02:33N 43°24' E 004°51'0 0.0
2014-Dec-12 01:30N 43°24' E 004°51'0 0.0
2014-Dec-12 00:30N 43°24' E 004°51'0 0.0
2014-Dec-11 23:30N 43°24' E 004°51'0 0.0
2014-Dec-11 22:33N 43°24' E 004°51'0 0.0
2014-Dec-11 21:30N 43°24' E 004°51'0 0.0
2014-Dec-11 20:33N 43°24' E 004°51'0 0.0
2014-Dec-11 19:30N 43°24' E 004°51'0 0.0
2014-Dec-11 18:33N 43°24' E 004°51'0 0.0
2014-Dec-11 17:33N 43°24' E 004°51'0 0.0
2014-Dec-11 16:33N 43°24' E 004°51'0 0.0
2014-Dec-11 15:33N 43°24' E 004°51'0 0.0
2014-Dec-11 14:34N 43°24' E 004°51'6 5.9
2014-Dec-11 13:34N 43°21' E 004°58'6 5.7
2014-Dec-11 12:33N 43°18' E 004°52'9 8.6
2014-Dec-11 11:33N 43°17' E 004°40'8 8.4
2014-Dec-11 10:34N 43°19' E 004°29'7 7.3
2014-Dec-11 09:34N 43°22' E 004°19'7 7.5
2014-Dec-11 08:33N 43°24' E 004°10'7 7.5
2014-Dec-11 07:34N 43°26' E 003°60'9 8.9
2014-Dec-11 06:31N 43°21' E 003°49'8 8.6
2014-Dec-11 05:33N 43°16' E 003°39'8 8.4
2014-Dec-11 04:33N 43°12' E 003°30'8 8.3
2014-Dec-11 03:33N 43°07' E 003°20'8 8.3
2014-Dec-11 02:33N 43°03' E 003°11'8 7.8
2014-Dec-11 01:33N 42°55' E 003°10'8 8.0
2014-Dec-11 00:33N 42°47' E 003°10'8 8.0
2014-Dec-10 23:33N 42°39' E 003°10'7 7.4
2014-Dec-10 22:33N 42°32' E 003°13'22 7.2
2014-Dec-10 19:31N 42°11' E 003°21'10 8.6
2014-Dec-10 18:19N 42°01' E 003°20'7 8.6
2014-Dec-10 17:28N 41°54' E 003°18'6 6.9
2014-Dec-10 16:33N 41°48' E 003°15'8 7.6
2014-Dec-10 15:33N 41°44' E 003°06'10 8.1
2014-Dec-10 14:15N 41°38' E 002°54'6 7.6
2014-Dec-10 13:32N 41°35' E 002°48'9 8.6
2014-Dec-10 12:26N 41°30' E 002°37'8 8.8
2014-Dec-10 11:32N 41°25' E 002°29'14 6.9
2014-Dec-10 09:27N 41°18' E 002°13'  

Dump ship's entire track history